sensor_id;sensor_type;location;lat;lon;timestamp;temperature;humidity
9847;DHT22;68671;50.084;8.794;2023-10-31T00:01:04;16.20;99.90
9847;DHT22;68671;50.084;8.794;2023-10-31T00:03:33;16.10;99.90
9847;DHT22;68671;50.084;8.794;2023-10-31T00:06:00;16.00;99.90
9847;DHT22;68671;50.084;8.794;2023-10-31T00:08:27;15.90;99.90
9847;DHT22;68671;50.084;8.794;2023-10-31T00:10:54;15.80;99.90
9847;DHT22;68671;50.084;8.794;2023-10-31T00:13:20;15.70;99.90
9847;DHT22;68671;50.084;8.794;2023-10-31T00:15:47;15.70;99.90
9847;DHT22;68671;50.084;8.794;2023-10-31T00:18:14;15.60;99.90
9847;DHT22;68671;50.084;8.794;2023-10-31T00:20:43;15.50;99.90
9847;DHT22;68671;50.084;8.794;2023-10-31T00:23:10;15.50;99.90
9847;DHT22;68671;50.084;8.794;2023-10-31T00:25:37;15.50;99.90
9847;DHT22;68671;50.084;8.794;2023-10-31T00:28:04;15.40;99.90
9847;DHT22;68671;50.084;8.794;2023-10-31T00:30:32;15.30;99.90
9847;DHT22;68671;50.084;8.794;2023-10-31T00:32:59;15.30;99.90
9847;DHT22;68671;50.084;8.794;2023-10-31T00:35:26;15.20;99.90
9847;DHT22;68671;50.084;8.794;2023-10-31T00:37:55;15.20;99.90
9847;DHT22;68671;50.084;8.794;2023-10-31T00:40:21;15.20;99.90
9847;DHT22;68671;50.084;8.794;2023-10-31T00:42:48;15.20;99.90
9847;DHT22;68671;50.084;8.794;2023-10-31T00:45:15;15.10;99.90
9847;DHT22;68671;50.084;8.794;2023-10-31T00:47:42;15.10;99.90
9847;DHT22;68671;50.084;8.794;2023-10-31T00:50:09;15.10;99.90
9847;DHT22;68671;50.084;8.794;2023-10-31T00:52:36;15.10;99.90
9847;DHT22;68671;50.084;8.794;2023-10-31T00:55:05;15.10;99.90
9847;DHT22;68671;50.084;8.794;2023-10-31T00:57:34;15.10;99.90
9847;DHT22;68671;50.084;8.794;2023-10-31T01:00:01;15.10;99.90
9847;DHT22;68671;50.084;8.794;2023-10-31T01:02:28;15.10;99.90
9847;DHT22;68671;50.084;8.794;2023-10-31T01:04:55;15.10;99.90
9847;DHT22;68671;50.084;8.794;2023-10-31T01:07:22;15.00;99.90
9847;DHT22;68671;50.084;8.794;2023-10-31T01:09:49;15.00;99.90
9847;DHT22;68671;50.084;8.794;2023-10-31T01:12:17;15.00;99.90
9847;DHT22;68671;50.084;8.794;2023-10-31T01:14:44;15.00;99.90
9847;DHT22;68671;50.084;8.794;2023-10-31T01:17:11;15.00;99.90
9847;DHT22;68671;50.084;8.794;2023-10-31T01:19:38;14.90;99.90
9847;DHT22;68671;50.084;8.794;2023-10-31T01:22:05;14.90;99.90
9847;DHT22;68671;50.084;8.794;2023-10-31T01:24:32;14.80;99.90
9847;DHT22;68671;50.084;8.794;2023-10-31T01:26:59;14.80;99.90
9847;DHT22;68671;50.084;8.794;2023-10-31T01:29:28;14.70;99.90
9847;DHT22;68671;50.084;8.794;2023-10-31T01:31:56;14.70;99.90
9847;DHT22;68671;50.084;8.794;2023-10-31T01:34:22;14.80;99.90
9847;DHT22;68671;50.084;8.794;2023-10-31T01:36:49;14.70;99.90
9847;DHT22;68671;50.084;8.794;2023-10-31T01:39:16;14.80;99.90
9847;DHT22;68671;50.084;8.794;2023-10-31T01:41:43;14.80;99.90
9847;DHT22;68671;50.084;8.794;2023-10-31T01:44:10;14.80;99.90
9847;DHT22;68671;50.084;8.794;2023-10-31T01:46:38;14.80;99.90
9847;DHT22;68671;50.084;8.794;2023-10-31T01:49:05;14.90;99.90
9847;DHT22;68671;50.084;8.794;2023-10-31T01:51:32;14.90;99.90
9847;DHT22;68671;50.084;8.794;2023-10-31T01:54:00;14.90;99.90
9847;DHT22;68671;50.084;8.794;2023-10-31T01:56:30;15.00;99.90
9847;DHT22;68671;50.084;8.794;2023-10-31T01:58:57;15.00;99.90
9847;DHT22;68671;50.084;8.794;2023-10-31T02:01:24;15.00;99.90
9847;DHT22;68671;50.084;8.794;2023-10-31T02:03:53;15.00;99.90
9847;DHT22;68671;50.084;8.794;2023-10-31T02:06:20;15.10;99.90
9847;DHT22;68671;50.084;8.794;2023-10-31T02:08:48;15.00;99.90
9847;DHT22;68671;50.084;8.794;2023-10-31T02:11:15;15.00;99.90
9847;DHT22;68671;50.084;8.794;2023-10-31T02:13:42;14.90;99.90
9847;DHT22;68671;50.084;8.794;2023-10-31T02:16:09;14.90;99.90
9847;DHT22;68671;50.084;8.794;2023-10-31T02:18:35;14.90;99.90
9847;DHT22;68671;50.084;8.794;2023-10-31T02:21:04;14.90;99.90
9847;DHT22;68671;50.084;8.794;2023-10-31T02:23:32;14.90;99.90
9847;DHT22;68671;50.084;8.794;2023-10-31T02:25:59;15.00;99.90
9847;DHT22;68671;50.084;8.794;2023-10-31T02:28:26;14.90;99.90
9847;DHT22;68671;50.084;8.794;2023-10-31T02:30:53;14.80;99.90
9847;DHT22;68671;50.084;8.794;2023-10-31T02:33:21;14.90;99.90
9847;DHT22;68671;50.084;8.794;2023-10-31T02:35:48;14.80;99.90
9847;DHT22;68671;50.084;8.794;2023-10-31T02:38:15;14.80;99.90
9847;DHT22;68671;50.084;8.794;2023-10-31T02:40:43;14.80;99.90
9847;DHT22;68671;50.084;8.794;2023-10-31T02:43:10;14.80;99.90
9847;DHT22;68671;50.084;8.794;2023-10-31T02:45:37;14.70;99.90
9847;DHT22;68671;50.084;8.794;2023-10-31T02:48:04;14.80;99.90
9847;DHT22;68671;50.084;8.794;2023-10-31T02:50:31;14.70;99.90
9847;DHT22;68671;50.084;8.794;2023-10-31T02:52:58;14.70;99.90
9847;DHT22;68671;50.084;8.794;2023-10-31T02:55:25;14.70;99.90
9847;DHT22;68671;50.084;8.794;2023-10-31T02:57:53;14.70;99.90
9847;DHT22;68671;50.084;8.794;2023-10-31T03:00:20;14.60;99.90
9847;DHT22;68671;50.084;8.794;2023-10-31T03:02:47;14.60;99.90
9847;DHT22;68671;50.084;8.794;2023-10-31T03:05:14;14.60;99.90
9847;DHT22;68671;50.084;8.794;2023-10-31T03:07:41;14.60;99.90
9847;DHT22;68671;50.084;8.794;2023-10-31T03:10:10;14.60;99.90
9847;DHT22;68671;50.084;8.794;2023-10-31T03:12:36;14.60;99.90
9847;DHT22;68671;50.084;8.794;2023-10-31T03:15:06;14.60;99.90
9847;DHT22;68671;50.084;8.794;2023-10-31T03:17:33;14.60;99.90
9847;DHT22;68671;50.084;8.794;2023-10-31T03:20:00;14.70;99.90
9847;DHT22;68671;50.084;8.794;2023-10-31T03:22:28;14.70;99.90
9847;DHT22;68671;50.084;8.794;2023-10-31T03:24:55;14.70;99.90
9847;DHT22;68671;50.084;8.794;2023-10-31T03:27:22;14.70;99.90
9847;DHT22;68671;50.084;8.794;2023-10-31T03:29:49;14.70;99.90
9847;DHT22;68671;50.084;8.794;2023-10-31T03:32:17;14.70;99.90
9847;DHT22;68671;50.084;8.794;2023-10-31T03:34:44;14.70;99.90
9847;DHT22;68671;50.084;8.794;2023-10-31T03:37:11;14.80;99.90
9847;DHT22;68671;50.084;8.794;2023-10-31T03:39:38;14.80;99.90
9847;DHT22;68671;50.084;8.794;2023-10-31T03:42:05;14.80;99.90
9847;DHT22;68671;50.084;8.794;2023-10-31T03:44:32;14.80;99.90
9847;DHT22;68671;50.084;8.794;2023-10-31T03:46:59;14.90;99.90
9847;DHT22;68671;50.084;8.794;2023-10-31T03:49:27;14.80;99.90
9847;DHT22;68671;50.084;8.794;2023-10-31T03:51:54;14.90;99.90
9847;DHT22;68671;50.084;8.794;2023-10-31T03:54:21;14.80;99.90
9847;DHT22;68671;50.084;8.794;2023-10-31T03:56:48;14.80;99.90
9847;DHT22;68671;50.084;8.794;2023-10-31T03:59:15;14.70;99.90
9847;DHT22;68671;50.084;8.794;2023-10-31T04:01:42;14.70;99.90
9847;DHT22;68671;50.084;8.794;2023-10-31T04:04:09;14.60;99.90
9847;DHT22;68671;50.084;8.794;2023-10-31T04:06:37;14.60;99.90
9847;DHT22;68671;50.084;8.794;2023-10-31T04:09:06;14.60;99.90
9847;DHT22;68671;50.084;8.794;2023-10-31T04:11:33;14.60;99.90
9847;DHT22;68671;50.084;8.794;2023-10-31T04:14:00;14.50;99.90
9847;DHT22;68671;50.084;8.794;2023-10-31T04:16:27;14.50;99.90
9847;DHT22;68671;50.084;8.794;2023-10-31T04:18:54;14.50;99.90
9847;DHT22;68671;50.084;8.794;2023-10-31T04:21:21;14.40;99.90
9847;DHT22;68671;50.084;8.794;2023-10-31T04:23:49;14.50;99.90
9847;DHT22;68671;50.084;8.794;2023-10-31T04:26:16;14.50;99.90
9847;DHT22;68671;50.084;8.794;2023-10-31T04:28:43;14.50;99.90
9847;DHT22;68671;50.084;8.794;2023-10-31T04:31:10;14.50;99.90
9847;DHT22;68671;50.084;8.794;2023-10-31T04:33:37;14.50;99.90
9847;DHT22;68671;50.084;8.794;2023-10-31T04:36:04;14.50;99.90
9847;DHT22;68671;50.084;8.794;2023-10-31T04:38:36;14.40;99.90
9847;DHT22;68671;50.084;8.794;2023-10-31T04:41:05;14.40;99.90
9847;DHT22;68671;50.084;8.794;2023-10-31T04:43:34;14.30;99.90
9847;DHT22;68671;50.084;8.794;2023-10-31T04:46:01;14.40;99.90
9847;DHT22;68671;50.084;8.794;2023-10-31T04:48:28;14.20;99.90
9847;DHT22;68671;50.084;8.794;2023-10-31T04:50:55;14.20;99.90
9847;DHT22;68671;50.084;8.794;2023-10-31T04:53:22;14.20;99.90
9847;DHT22;68671;50.084;8.794;2023-10-31T04:55:49;14.20;99.90
9847;DHT22;68671;50.084;8.794;2023-10-31T04:58:17;14.20;99.90
9847;DHT22;68671;50.084;8.794;2023-10-31T05:00:45;14.20;99.90
9847;DHT22;68671;50.084;8.794;2023-10-31T05:03:12;14.20;99.90
9847;DHT22;68671;50.084;8.794;2023-10-31T05:05:39;14.20;99.90
9847;DHT22;68671;50.084;8.794;2023-10-31T05:08:06;14.20;99.90
9847;DHT22;68671;50.084;8.794;2023-10-31T05:10:33;14.20;99.90
9847;DHT22;68671;50.084;8.794;2023-10-31T05:13:00;14.20;99.90
9847;DHT22;68671;50.084;8.794;2023-10-31T05:15:29;14.20;99.90
9847;DHT22;68671;50.084;8.794;2023-10-31T05:17:56;14.20;99.90
9847;DHT22;68671;50.084;8.794;2023-10-31T05:20:23;14.20;99.90
9847;DHT22;68671;50.084;8.794;2023-10-31T05:22:50;14.20;99.90
9847;DHT22;68671;50.084;8.794;2023-10-31T05:25:16;14.20;99.90
9847;DHT22;68671;50.084;8.794;2023-10-31T05:27:44;14.20;99.90
9847;DHT22;68671;50.084;8.794;2023-10-31T05:30:13;14.30;99.90
9847;DHT22;68671;50.084;8.794;2023-10-31T05:32:42;14.20;99.90
9847;DHT22;68671;50.084;8.794;2023-10-31T05:35:10;14.20;99.90
9847;DHT22;68671;50.084;8.794;2023-10-31T05:37:36;14.30;99.90
9847;DHT22;68671;50.084;8.794;2023-10-31T05:40:04;14.30;99.90
9847;DHT22;68671;50.084;8.794;2023-10-31T05:42:31;14.30;99.90
9847;DHT22;68671;50.084;8.794;2023-10-31T05:44:59;14.30;99.90
9847;DHT22;68671;50.084;8.794;2023-10-31T05:47:26;14.30;99.90
9847;DHT22;68671;50.084;8.794;2023-10-31T05:49:54;14.40;99.90
9847;DHT22;68671;50.084;8.794;2023-10-31T05:52:21;14.30;99.90
9847;DHT22;68671;50.084;8.794;2023-10-31T05:54:48;14.30;99.90
9847;DHT22;68671;50.084;8.794;2023-10-31T05:57:15;14.30;99.90
9847;DHT22;68671;50.084;8.794;2023-10-31T05:59:45;14.30;99.90
9847;DHT22;68671;50.084;8.794;2023-10-31T06:02:13;14.30;99.90
9847;DHT22;68671;50.084;8.794;2023-10-31T06:04:40;14.30;99.90
9847;DHT22;68671;50.084;8.794;2023-10-31T06:07:08;14.40;99.90
9847;DHT22;68671;50.084;8.794;2023-10-31T06:09:36;14.40;99.90
9847;DHT22;68671;50.084;8.794;2023-10-31T06:12:04;14.40;99.90
9847;DHT22;68671;50.084;8.794;2023-10-31T06:14:31;14.40;99.90
9847;DHT22;68671;50.084;8.794;2023-10-31T06:16:58;14.40;99.90
9847;DHT22;68671;50.084;8.794;2023-10-31T06:19:26;14.50;99.90
9847;DHT22;68671;50.084;8.794;2023-10-31T06:21:53;14.50;99.90
9847;DHT22;68671;50.084;8.794;2023-10-31T06:24:22;14.50;99.90
9847;DHT22;68671;50.084;8.794;2023-10-31T06:26:48;14.50;99.90
9847;DHT22;68671;50.084;8.794;2023-10-31T06:29:15;14.60;99.90
9847;DHT22;68671;50.084;8.794;2023-10-31T06:31:42;14.60;99.90
9847;DHT22;68671;50.084;8.794;2023-10-31T06:34:09;14.60;99.90
9847;DHT22;68671;50.084;8.794;2023-10-31T06:36:36;14.60;99.90
9847;DHT22;68671;50.084;8.794;2023-10-31T06:39:04;14.70;99.90
9847;DHT22;68671;50.084;8.794;2023-10-31T06:41:33;14.70;99.90
9847;DHT22;68671;50.084;8.794;2023-10-31T06:44:00;14.60;99.90
9847;DHT22;68671;50.084;8.794;2023-10-31T06:46:26;14.70;99.90
9847;DHT22;68671;50.084;8.794;2023-10-31T06:48:53;14.60;99.90
9847;DHT22;68671;50.084;8.794;2023-10-31T06:51:20;14.60;99.90
9847;DHT22;68671;50.084;8.794;2023-10-31T06:53:47;14.60;99.90
9847;DHT22;68671;50.084;8.794;2023-10-31T06:56:14;14.60;99.90
9847;DHT22;68671;50.084;8.794;2023-10-31T06:58:42;14.60;99.90
9847;DHT22;68671;50.084;8.794;2023-10-31T07:01:09;14.60;99.90
9847;DHT22;68671;50.084;8.794;2023-10-31T07:03:36;14.70;99.90
9847;DHT22;68671;50.084;8.794;2023-10-31T07:06:04;14.60;99.90
9847;DHT22;68671;50.084;8.794;2023-10-31T07:08:31;14.60;99.90
9847;DHT22;68671;50.084;8.794;2023-10-31T07:10:58;14.60;99.90
9847;DHT22;68671;50.084;8.794;2023-10-31T07:13:25;14.60;99.90
9847;DHT22;68671;50.084;8.794;2023-10-31T07:15:52;14.60;99.90
9847;DHT22;68671;50.084;8.794;2023-10-31T07:18:19;14.70;99.90
9847;DHT22;68671;50.084;8.794;2023-10-31T07:20:46;14.70;99.90
9847;DHT22;68671;50.084;8.794;2023-10-31T07:23:13;14.60;99.90
9847;DHT22;68671;50.084;8.794;2023-10-31T07:25:40;14.70;99.90
9847;DHT22;68671;50.084;8.794;2023-10-31T07:28:09;14.60;99.90
9847;DHT22;68671;50.084;8.794;2023-10-31T07:30:35;14.70;99.90
9847;DHT22;68671;50.084;8.794;2023-10-31T07:33:04;14.70;99.90
9847;DHT22;68671;50.084;8.794;2023-10-31T07:35:31;14.70;99.90
9847;DHT22;68671;50.084;8.794;2023-10-31T07:37:58;14.80;99.90
9847;DHT22;68671;50.084;8.794;2023-10-31T07:40:24;14.80;99.90
9847;DHT22;68671;50.084;8.794;2023-10-31T07:42:51;14.80;99.90
9847;DHT22;68671;50.084;8.794;2023-10-31T07:45:18;14.90;99.90
9847;DHT22;68671;50.084;8.794;2023-10-31T07:47:45;14.90;99.90
9847;DHT22;68671;50.084;8.794;2023-10-31T07:50:14;14.80;99.90
9847;DHT22;68671;50.084;8.794;2023-10-31T07:52:41;14.90;99.90
9847;DHT22;68671;50.084;8.794;2023-10-31T07:55:09;14.90;99.90
9847;DHT22;68671;50.084;8.794;2023-10-31T07:57:36;14.90;99.90
9847;DHT22;68671;50.084;8.794;2023-10-31T08:00:04;14.90;99.90
9847;DHT22;68671;50.084;8.794;2023-10-31T08:02:36;15.00;99.90
9847;DHT22;68671;50.084;8.794;2023-10-31T08:05:03;14.90;99.90
9847;DHT22;68671;50.084;8.794;2023-10-31T08:07:31;15.00;99.90
9847;DHT22;68671;50.084;8.794;2023-10-31T08:09:58;15.00;99.90
9847;DHT22;68671;50.084;8.794;2023-10-31T08:12:25;15.00;99.90
9847;DHT22;68671;50.084;8.794;2023-10-31T08:14:52;15.00;99.90
9847;DHT22;68671;50.084;8.794;2023-10-31T08:17:19;14.90;99.90
9847;DHT22;68671;50.084;8.794;2023-10-31T08:19:46;15.00;99.90
9847;DHT22;68671;50.084;8.794;2023-10-31T08:22:13;14.90;99.90
9847;DHT22;68671;50.084;8.794;2023-10-31T08:24:41;15.00;99.90
9847;DHT22;68671;50.084;8.794;2023-10-31T08:27:08;15.00;99.90
9847;DHT22;68671;50.084;8.794;2023-10-31T08:29:35;15.00;99.90
9847;DHT22;68671;50.084;8.794;2023-10-31T08:32:03;15.00;99.90
9847;DHT22;68671;50.084;8.794;2023-10-31T08:34:30;15.10;99.90
9847;DHT22;68671;50.084;8.794;2023-10-31T08:36:57;15.10;99.90
9847;DHT22;68671;50.084;8.794;2023-10-31T08:39:25;15.10;99.90
9847;DHT22;68671;50.084;8.794;2023-10-31T08:41:55;15.10;99.90
9847;DHT22;68671;50.084;8.794;2023-10-31T08:44:23;15.10;99.90
9847;DHT22;68671;50.084;8.794;2023-10-31T08:46:50;15.20;99.90
9847;DHT22;68671;50.084;8.794;2023-10-31T08:49:17;15.20;99.90
9847;DHT22;68671;50.084;8.794;2023-10-31T08:51:44;15.20;99.90
9847;DHT22;68671;50.084;8.794;2023-10-31T08:54:11;15.20;99.90
9847;DHT22;68671;50.084;8.794;2023-10-31T08:56:38;15.30;99.90
9847;DHT22;68671;50.084;8.794;2023-10-31T08:59:06;15.20;99.90
9847;DHT22;68671;50.084;8.794;2023-10-31T09:01:33;15.30;99.90
9847;DHT22;68671;50.084;8.794;2023-10-31T09:04:00;15.30;99.90
9847;DHT22;68671;50.084;8.794;2023-10-31T09:06:27;15.30;99.90
9847;DHT22;68671;50.084;8.794;2023-10-31T09:08:54;15.30;99.90
9847;DHT22;68671;50.084;8.794;2023-10-31T09:11:21;15.30;99.90
9847;DHT22;68671;50.084;8.794;2023-10-31T09:13:48;15.40;99.90
9847;DHT22;68671;50.084;8.794;2023-10-31T09:16:16;15.40;99.90
9847;DHT22;68671;50.084;8.794;2023-10-31T09:18:43;15.40;99.90
9847;DHT22;68671;50.084;8.794;2023-10-31T09:21:12;15.40;99.90
9847;DHT22;68671;50.084;8.794;2023-10-31T09:23:39;15.50;99.90
9847;DHT22;68671;50.084;8.794;2023-10-31T09:26:06;15.50;99.90
9847;DHT22;68671;50.084;8.794;2023-10-31T09:28:33;15.60;99.90
9847;DHT22;68671;50.084;8.794;2023-10-31T09:31:00;15.70;99.90
9847;DHT22;68671;50.084;8.794;2023-10-31T09:33:28;15.70;99.90
9847;DHT22;68671;50.084;8.794;2023-10-31T09:35:55;15.80;99.90
9847;DHT22;68671;50.084;8.794;2023-10-31T09:38:23;15.80;99.90
9847;DHT22;68671;50.084;8.794;2023-10-31T09:40:50;15.90;99.90
9847;DHT22;68671;50.084;8.794;2023-10-31T09:43:17;16.00;99.90
9847;DHT22;68671;50.084;8.794;2023-10-31T09:45:44;16.00;99.90
9847;DHT22;68671;50.084;8.794;2023-10-31T09:48:12;16.10;99.90
9847;DHT22;68671;50.084;8.794;2023-10-31T09:50:41;16.00;99.90
9847;DHT22;68671;50.084;8.794;2023-10-31T09:53:08;16.00;99.90
9847;DHT22;68671;50.084;8.794;2023-10-31T09:55:36;16.00;99.90
9847;DHT22;68671;50.084;8.794;2023-10-31T09:58:04;16.00;99.90
9847;DHT22;68671;50.084;8.794;2023-10-31T10:00:31;16.00;99.90
9847;DHT22;68671;50.084;8.794;2023-10-31T10:02:58;16.00;99.90
9847;DHT22;68671;50.084;8.794;2023-10-31T10:05:26;16.00;99.90
9847;DHT22;68671;50.084;8.794;2023-10-31T10:07:57;16.10;99.90
9847;DHT22;68671;50.084;8.794;2023-10-31T10:10:24;16.10;99.90
9847;DHT22;68671;50.084;8.794;2023-10-31T10:12:51;16.20;99.90
9847;DHT22;68671;50.084;8.794;2023-10-31T10:15:18;16.10;99.90
9847;DHT22;68671;50.084;8.794;2023-10-31T10:17:49;16.00;99.90
9847;DHT22;68671;50.084;8.794;2023-10-31T10:20:19;16.00;99.90
9847;DHT22;68671;50.084;8.794;2023-10-31T10:22:47;16.00;99.90
9847;DHT22;68671;50.084;8.794;2023-10-31T10:25:16;16.00;99.90
9847;DHT22;68671;50.084;8.794;2023-10-31T10:27:44;16.00;99.90
9847;DHT22;68671;50.084;8.794;2023-10-31T10:30:13;16.10;99.90
9847;DHT22;68671;50.084;8.794;2023-10-31T10:32:41;16.20;99.90
9847;DHT22;68671;50.084;8.794;2023-10-31T10:35:08;16.20;99.90
9847;DHT22;68671;50.084;8.794;2023-10-31T10:37:37;16.30;99.90
9847;DHT22;68671;50.084;8.794;2023-10-31T10:40:07;16.30;99.90
9847;DHT22;68671;50.084;8.794;2023-10-31T10:42:44;16.30;99.90
9847;DHT22;68671;50.084;8.794;2023-10-31T10:45:13;16.40;99.90
9847;DHT22;68671;50.084;8.794;2023-10-31T10:47:46;16.50;99.90
9847;DHT22;68671;50.084;8.794;2023-10-31T10:50:13;16.50;99.90
9847;DHT22;68671;50.084;8.794;2023-10-31T10:52:44;16.50;99.90
9847;DHT22;68671;50.084;8.794;2023-10-31T10:55:13;16.50;99.90
9847;DHT22;68671;50.084;8.794;2023-10-31T10:57:50;16.40;99.90
9847;DHT22;68671;50.084;8.794;2023-10-31T11:00:20;16.50;99.90
9847;DHT22;68671;50.084;8.794;2023-10-31T11:02:51;16.60;99.90
9847;DHT22;68671;50.084;8.794;2023-10-31T11:05:18;16.60;99.90
9847;DHT22;68671;50.084;8.794;2023-10-31T11:07:46;16.60;99.90
9847;DHT22;68671;50.084;8.794;2023-10-31T11:10:14;16.60;99.90
9847;DHT22;68671;50.084;8.794;2023-10-31T11:12:43;16.60;99.90
9847;DHT22;68671;50.084;8.794;2023-10-31T11:15:13;16.70;99.90
9847;DHT22;68671;50.084;8.794;2023-10-31T11:17:43;16.70;99.90
9847;DHT22;68671;50.084;8.794;2023-10-31T11:20:13;16.70;99.90
9847;DHT22;68671;50.084;8.794;2023-10-31T11:22:41;16.80;99.90
9847;DHT22;68671;50.084;8.794;2023-10-31T11:25:10;16.80;99.90
9847;DHT22;68671;50.084;8.794;2023-10-31T11:27:38;16.80;99.90
9847;DHT22;68671;50.084;8.794;2023-10-31T11:30:19;16.80;99.90
9847;DHT22;68671;50.084;8.794;2023-10-31T11:32:48;16.70;99.90
9847;DHT22;68671;50.084;8.794;2023-10-31T11:35:16;16.80;99.90
9847;DHT22;68671;50.084;8.794;2023-10-31T11:37:43;16.80;99.90
9847;DHT22;68671;50.084;8.794;2023-10-31T11:40:21;16.90;99.90
9847;DHT22;68671;50.084;8.794;2023-10-31T11:42:49;16.80;99.90
9847;DHT22;68671;50.084;8.794;2023-10-31T11:45:34;16.80;99.90
9847;DHT22;68671;50.084;8.794;2023-10-31T11:48:02;16.90;99.90
9847;DHT22;68671;50.084;8.794;2023-10-31T11:50:30;16.90;99.90
9847;DHT22;68671;50.084;8.794;2023-10-31T11:53:02;16.90;99.90
9847;DHT22;68671;50.084;8.794;2023-10-31T11:55:31;16.90;99.90
9847;DHT22;68671;50.084;8.794;2023-10-31T11:58:13;16.90;99.90
9847;DHT22;68671;50.084;8.794;2023-10-31T12:00:41;16.90;99.90
9847;DHT22;68671;50.084;8.794;2023-10-31T12:03:10;16.80;99.90
9847;DHT22;68671;50.084;8.794;2023-10-31T12:05:37;16.90;99.90
9847;DHT22;68671;50.084;8.794;2023-10-31T12:08:04;16.90;99.90
9847;DHT22;68671;50.084;8.794;2023-10-31T12:10:31;16.90;99.90
9847;DHT22;68671;50.084;8.794;2023-10-31T12:12:58;16.90;99.90
9847;DHT22;68671;50.084;8.794;2023-10-31T12:15:25;16.90;99.90
9847;DHT22;68671;50.084;8.794;2023-10-31T12:17:57;16.90;99.90
9847;DHT22;68671;50.084;8.794;2023-10-31T12:20:24;16.90;99.90
9847;DHT22;68671;50.084;8.794;2023-10-31T12:23:01;16.80;99.90
9847;DHT22;68671;50.084;8.794;2023-10-31T12:25:29;16.80;99.90
9847;DHT22;68671;50.084;8.794;2023-10-31T12:27:58;16.90;99.90
9847;DHT22;68671;50.084;8.794;2023-10-31T12:30:25;16.90;99.90
9847;DHT22;68671;50.084;8.794;2023-10-31T12:32:55;16.90;99.90
9847;DHT22;68671;50.084;8.794;2023-10-31T12:35:23;16.90;99.90
9847;DHT22;68671;50.084;8.794;2023-10-31T12:37:51;16.90;99.90
9847;DHT22;68671;50.084;8.794;2023-10-31T12:40:19;16.90;99.90
9847;DHT22;68671;50.084;8.794;2023-10-31T12:42:48;16.80;99.90
9847;DHT22;68671;50.084;8.794;2023-10-31T12:45:17;17.00;99.90
9847;DHT22;68671;50.084;8.794;2023-10-31T12:47:44;17.00;99.90
9847;DHT22;68671;50.084;8.794;2023-10-31T12:50:14;17.00;99.90
9847;DHT22;68671;50.084;8.794;2023-10-31T12:52:48;17.10;99.90
9847;DHT22;68671;50.084;8.794;2023-10-31T12:55:18;17.10;99.90
9847;DHT22;68671;50.084;8.794;2023-10-31T12:57:45;17.20;99.90
9847;DHT22;68671;50.084;8.794;2023-10-31T13:00:17;17.20;99.90
9847;DHT22;68671;50.084;8.794;2023-10-31T13:02:59;17.20;99.90
9847;DHT22;68671;50.084;8.794;2023-10-31T13:05:28;17.30;99.90
9847;DHT22;68671;50.084;8.794;2023-10-31T13:07:56;17.40;99.90
9847;DHT22;68671;50.084;8.794;2023-10-31T13:10:26;17.40;99.90
9847;DHT22;68671;50.084;8.794;2023-10-31T13:12:54;17.40;99.90
9847;DHT22;68671;50.084;8.794;2023-10-31T13:15:22;17.50;99.90
9847;DHT22;68671;50.084;8.794;2023-10-31T13:17:49;17.50;99.90
9847;DHT22;68671;50.084;8.794;2023-10-31T13:20:18;17.50;99.90
9847;DHT22;68671;50.084;8.794;2023-10-31T13:22:47;17.60;99.90
9847;DHT22;68671;50.084;8.794;2023-10-31T13:25:14;17.50;99.90
9847;DHT22;68671;50.084;8.794;2023-10-31T13:27:43;17.40;99.90
9847;DHT22;68671;50.084;8.794;2023-10-31T13:30:11;17.40;99.90
9847;DHT22;68671;50.084;8.794;2023-10-31T13:32:39;17.40;99.90
9847;DHT22;68671;50.084;8.794;2023-10-31T13:35:06;17.30;99.90
9847;DHT22;68671;50.084;8.794;2023-10-31T13:37:34;17.30;99.90
9847;DHT22;68671;50.084;8.794;2023-10-31T13:40:04;17.30;99.90
9847;DHT22;68671;50.084;8.794;2023-10-31T13:42:33;17.20;99.90
9847;DHT22;68671;50.084;8.794;2023-10-31T13:45:00;17.10;99.90
9847;DHT22;68671;50.084;8.794;2023-10-31T13:47:27;17.10;99.90
9847;DHT22;68671;50.084;8.794;2023-10-31T13:49:55;17.00;99.90
9847;DHT22;68671;50.084;8.794;2023-10-31T13:52:22;17.00;99.90
9847;DHT22;68671;50.084;8.794;2023-10-31T13:54:49;17.00;99.90
9847;DHT22;68671;50.084;8.794;2023-10-31T13:57:18;16.90;99.90
9847;DHT22;68671;50.084;8.794;2023-10-31T13:59:45;16.90;99.90
9847;DHT22;68671;50.084;8.794;2023-10-31T14:02:15;16.80;99.90
9847;DHT22;68671;50.084;8.794;2023-10-31T14:04:41;16.80;99.90
9847;DHT22;68671;50.084;8.794;2023-10-31T14:07:08;16.70;99.90
9847;DHT22;68671;50.084;8.794;2023-10-31T14:09:35;16.70;99.90
9847;DHT22;68671;50.084;8.794;2023-10-31T14:12:06;16.70;99.90
9847;DHT22;68671;50.084;8.794;2023-10-31T14:14:35;16.60;99.90
9847;DHT22;68671;50.084;8.794;2023-10-31T14:17:02;16.60;99.90
9847;DHT22;68671;50.084;8.794;2023-10-31T14:19:30;16.60;99.90
9847;DHT22;68671;50.084;8.794;2023-10-31T14:21:57;16.60;99.90
9847;DHT22;68671;50.084;8.794;2023-10-31T14:24:24;16.50;99.90
9847;DHT22;68671;50.084;8.794;2023-10-31T14:26:51;16.50;99.90
9847;DHT22;68671;50.084;8.794;2023-10-31T14:29:18;16.50;99.90
9847;DHT22;68671;50.084;8.794;2023-10-31T14:31:48;16.50;99.90
9847;DHT22;68671;50.084;8.794;2023-10-31T14:34:14;16.50;99.90
9847;DHT22;68671;50.084;8.794;2023-10-31T14:36:41;16.50;99.90
9847;DHT22;68671;50.084;8.794;2023-10-31T14:39:08;16.50;99.90
9847;DHT22;68671;50.084;8.794;2023-10-31T14:41:37;16.50;99.90
9847;DHT22;68671;50.084;8.794;2023-10-31T14:44:04;16.40;99.90
9847;DHT22;68671;50.084;8.794;2023-10-31T14:46:32;16.40;99.90
9847;DHT22;68671;50.084;8.794;2023-10-31T14:49:00;16.40;99.90
9847;DHT22;68671;50.084;8.794;2023-10-31T14:51:27;16.40;99.90
9847;DHT22;68671;50.084;8.794;2023-10-31T14:53:54;16.40;99.90
9847;DHT22;68671;50.084;8.794;2023-10-31T14:56:21;16.40;99.90
9847;DHT22;68671;50.084;8.794;2023-10-31T14:58:48;16.30;99.90
9847;DHT22;68671;50.084;8.794;2023-10-31T15:01:15;16.30;99.90
9847;DHT22;68671;50.084;8.794;2023-10-31T15:03:42;16.40;99.90
9847;DHT22;68671;50.084;8.794;2023-10-31T15:06:11;16.30;99.90
9847;DHT22;68671;50.084;8.794;2023-10-31T15:08:38;16.30;99.90
9847;DHT22;68671;50.084;8.794;2023-10-31T15:11:05;16.30;99.90
9847;DHT22;68671;50.084;8.794;2023-10-31T15:13:33;16.30;99.90
9847;DHT22;68671;50.084;8.794;2023-10-31T15:16:00;16.20;99.90
9847;DHT22;68671;50.084;8.794;2023-10-31T15:18:27;16.20;99.90
9847;DHT22;68671;50.084;8.794;2023-10-31T15:20:53;16.10;99.90
9847;DHT22;68671;50.084;8.794;2023-10-31T15:23:24;16.20;99.90
9847;DHT22;68671;50.084;8.794;2023-10-31T15:25:52;16.20;99.90
9847;DHT22;68671;50.084;8.794;2023-10-31T15:28:19;16.20;99.90
9847;DHT22;68671;50.084;8.794;2023-10-31T15:30:46;16.10;99.90
9847;DHT22;68671;50.084;8.794;2023-10-31T15:33:14;16.10;99.90
9847;DHT22;68671;50.084;8.794;2023-10-31T15:35:41;16.10;99.90
9847;DHT22;68671;50.084;8.794;2023-10-31T15:38:08;16.20;99.90
9847;DHT22;68671;50.084;8.794;2023-10-31T15:40:36;16.10;99.90
9847;DHT22;68671;50.084;8.794;2023-10-31T15:43:03;16.10;99.90
9847;DHT22;68671;50.084;8.794;2023-10-31T15:45:30;16.00;99.90
9847;DHT22;68671;50.084;8.794;2023-10-31T15:48:05;16.10;99.90